createdAt,value
2022-08-07T00:00:23.832Z,102500.38
2022-08-07T00:02:51.032Z,102500.22
2022-08-07T00:05:20.004Z,102491.34
2022-08-07T00:07:46.869Z,102497.44
2022-08-07T00:10:25.896Z,102492.13
2022-08-07T00:13:00.346Z,102493.81
2022-08-07T00:15:37.967Z,102492.91
2022-08-07T00:18:18.827Z,102490.25
2022-08-07T00:20:47.725Z,102485.00
2022-08-07T00:23:14.847Z,102479.63
2022-08-07T00:25:43.460Z,102482.19
2022-08-07T00:28:12.261Z,102480.38
2022-08-07T00:30:42.128Z,102475.94
2022-08-07T00:33:08.620Z,102469.72
2022-08-07T00:35:36.714Z,102479.47
2022-08-07T00:38:03.677Z,102474.16
2022-08-07T00:40:36.281Z,102480.28
2022-08-07T00:43:10.011Z,102480.28
2022-08-07T00:45:38.207Z,102475.81
2022-08-07T00:48:08.136Z,102479.38
2022-08-07T00:50:46.105Z,102476.66
2022-08-07T00:53:17.534Z,102474.88
2022-08-07T00:56:00.524Z,102481.06
2022-08-07T00:58:28.810Z,102474.00
2022-08-07T01:00:55.138Z,102473.13
2022-08-07T01:03:25.479Z,102475.72
2022-08-07T01:06:08.257Z,102476.53
2022-08-07T01:08:34.614Z,102477.34
2022-08-07T01:12:04.388Z,102474.66
2022-08-07T01:13:56.011Z,102471.09
2022-08-07T01:16:30.230Z,102475.44
2022-08-07T01:18:57.614Z,102469.28
2022-08-07T01:21:27.076Z,102472.69
2022-08-07T01:23:56.610Z,102470.81
2022-08-07T01:26:23.383Z,102466.34
2022-08-07T01:28:53.840Z,102468.09
2022-08-07T01:31:20.711Z,102461.94
2022-08-07T01:33:56.141Z,102461.88
2022-08-07T01:36:33.796Z,102467.03
2022-08-07T01:39:04.135Z,102469.66
2022-08-07T01:41:37.790Z,102461.66
2022-08-07T01:44:04.989Z,102473.09
2022-08-07T01:46:31.526Z,102465.09
2022-08-07T01:48:59.808Z,102466.00
2022-08-07T01:52:02.570Z,102460.72
2022-08-07T01:54:33.310Z,102464.13
2022-08-07T01:57:03.849Z,102466.69
2022-08-07T01:59:33.909Z,102463.88
2022-08-07T02:02:06.433Z,102462.88
2022-08-07T02:04:55.714Z,102460.09
2022-08-07T02:07:24.021Z,102453.91
2022-08-07T02:10:03.847Z,102452.91
2022-08-07T02:12:33.220Z,102457.31
2022-08-07T02:15:00.933Z,102459.91
2022-08-07T02:17:34.000Z,102455.44
2022-08-07T02:20:04.606Z,102451.78
2022-08-07T02:22:38.183Z,102449.09
2022-08-07T02:25:13.872Z,102443.81
2022-08-07T02:27:44.255Z,102449.06
2022-08-07T02:30:18.977Z,102447.22
2022-08-07T02:33:00.991Z,102448.00
2022-08-07T02:36:29.246Z,102447.19
2022-08-07T02:38:22.828Z,102446.31
2022-08-07T02:40:56.036Z,102442.84
2022-08-07T02:43:22.624Z,102456.19
2022-08-07T02:45:58.046Z,102448.28
2022-08-07T02:48:25.955Z,102451.75
2022-08-07T02:50:56.068Z,102445.50
2022-08-07T02:53:27.492Z,102452.50
2022-08-07T02:56:04.196Z,102449.81
2022-08-07T02:58:33.229Z,102445.34
2022-08-07T03:01:01.935Z,102443.53
2022-08-07T03:03:49.423Z,102439.06
2022-08-07T03:06:25.959Z,102436.31
2022-08-07T03:09:00.815Z,102432.63
2022-08-07T03:11:28.115Z,102432.56
2022-08-07T03:13:57.668Z,102434.28
2022-08-07T03:16:28.095Z,102431.66
2022-08-07T03:18:54.655Z,102432.47
2022-08-07T03:21:22.527Z,102434.16
2022-08-07T03:24:19.761Z,102432.31
2022-08-07T03:26:50.912Z,102433.22
2022-08-07T03:29:18.692Z,102425.22
2022-08-07T03:31:49.958Z,102428.72
2022-08-07T03:34:18.860Z,102426.88
2022-08-07T03:36:50.608Z,102423.44
2022-08-07T03:39:17.665Z,102424.25
2022-08-07T03:42:07.343Z,102431.25
2022-08-07T03:44:35.855Z,102418.00
2022-08-07T03:47:13.751Z,102422.47
2022-08-07T03:49:41.915Z,102421.59
2022-08-07T03:52:22.819Z,102418.97
2022-08-07T03:54:57.338Z,102418.00
2022-08-07T03:59:06.835Z,102424.16
2022-08-07T04:00:21.129Z,102421.56
2022-08-07T04:02:56.722Z,102420.66
2022-08-07T04:05:28.636Z,102421.50
2022-08-07T04:08:05.639Z,102423.28
2022-08-07T04:10:32.644Z,102429.53
2022-08-07T04:13:07.535Z,102429.63
2022-08-07T04:15:42.944Z,102427.03
2022-08-07T04:18:57.225Z,102434.16
2022-08-07T04:20:57.652Z,102431.59
2022-08-07T04:23:25.146Z,102436.97
2022-08-07T04:26:10.457Z,102439.72
2022-08-07T04:28:37.939Z,102444.19
2022-08-07T04:31:04.590Z,102446.03
2022-08-07T04:33:35.365Z,102451.41
2022-08-07T04:36:02.238Z,102450.63
2022-08-07T04:38:33.103Z,102454.34
2022-08-07T04:41:00.458Z,102447.53
2022-08-07T04:44:14.560Z,102455.63
2022-08-07T04:46:25.855Z,102451.44
2022-08-07T04:49:07.407Z,102456.06
2022-08-07T04:51:52.513Z,102457.19
2022-08-07T04:54:30.244Z,102446.91
2022-08-07T04:58:15.416Z,102445.31
2022-08-07T05:00:14.574Z,102438.50
2022-08-07T05:03:17.028Z,102455.44
2022-08-07T05:06:19.195Z,102449.53
2022-08-07T05:09:01.585Z,102448.84
2022-08-07T05:11:57.388Z,102443.81
2022-08-07T05:14:53.261Z,102448.56
2022-08-07T05:17:11.904Z,102447.19
2022-08-07T05:19:44.735Z,102449.31
2022-08-07T05:22:12.911Z,102439.00
2022-08-07T05:24:55.533Z,102456.09
2022-08-07T05:28:02.942Z,102458.13
2022-08-07T05:30:10.649Z,102455.88
2022-08-07T05:32:39.352Z,102453.44
2022-08-07T05:35:07.453Z,102449.94
2022-08-07T05:37:37.716Z,102449.91
2022-08-07T05:40:17.626Z,102448.13
2022-08-07T05:42:55.550Z,102445.44
2022-08-07T05:45:28.065Z,102451.72
2022-08-07T05:48:10.557Z,102447.56
2022-08-07T05:50:39.343Z,102449.50
2022-08-07T05:54:13.024Z,102457.91
2022-08-07T05:56:02.888Z,102445.91
2022-08-07T05:58:36.943Z,102447.16
2022-08-07T06:01:05.037Z,102444.84
2022-08-07T06:03:56.915Z,102448.84
2022-08-07T06:06:19.891Z,102452.81
2022-08-07T06:08:47.041Z,102448.59
2022-08-07T06:11:17.965Z,102447.91
2022-08-07T06:14:12.752Z,102448.84
2022-08-07T06:16:35.047Z,102447.09
2022-08-07T06:19:02.998Z,102449.81
2022-08-07T06:22:14.544Z,102453.41
2022-08-07T06:24:46.014Z,102447.09
2022-08-07T06:27:06.159Z,102443.56
2022-08-07T06:29:34.868Z,102441.06
2022-08-07T06:32:05.270Z,102450.84
2022-08-07T06:34:31.614Z,102449.13
2022-08-07T06:36:58.023Z,102449.13
2022-08-07T06:40:16.244Z,102448.25
2022-08-07T06:42:13.703Z,102455.38
2022-08-07T06:44:40.698Z,102458.03
2022-08-07T06:47:10.623Z,102461.63
2022-08-07T06:49:50.969Z,102450.09
2022-08-07T06:52:31.290Z,102451.88
2022-08-07T06:55:32.993Z,102450.06
2022-08-07T06:57:56.847Z,102449.19
2022-08-07T07:00:24.441Z,102443.84
2022-08-07T07:02:54.157Z,102444.72
2022-08-07T07:06:05.691Z,102445.66
2022-08-07T07:08:18.563Z,102440.25
2022-08-07T07:10:57.124Z,102444.69
2022-08-07T07:13:57.462Z,102440.25
2022-08-07T07:16:27.642Z,102445.63
2022-08-07T07:18:59.559Z,102449.19
2022-08-07T07:22:05.490Z,102446.50
2022-08-07T07:24:16.754Z,102447.44
2022-08-07T07:26:49.699Z,102458.09
2022-08-07T07:29:56.058Z,102450.84
2022-08-07T07:32:08.647Z,102442.72
2022-08-07T07:34:36.308Z,102444.34
2022-08-07T07:37:21.747Z,102446.88
2022-08-07T07:39:56.018Z,102440.50
2022-08-07T07:42:25.767Z,102438.69
2022-08-07T07:45:00.316Z,102433.19
2022-08-07T07:47:27.736Z,102428.78
2022-08-07T07:50:33.099Z,102443.78
2022-08-07T07:52:41.649Z,102438.25
2022-08-07T07:55:09.203Z,102423.09
2022-08-07T07:57:50.277Z,102430.13
2022-08-07T08:00:29.145Z,102430.00
2022-08-07T08:03:04.870Z,102415.78
2022-08-07T08:05:51.049Z,102413.88
2022-08-07T08:08:35.927Z,102407.72
2022-08-07T08:11:08.562Z,102411.25
2022-08-07T08:13:36.751Z,102417.22
2022-08-07T08:16:20.715Z,102405.38
2022-08-07T08:18:54.619Z,102409.63
2022-08-07T08:22:00.471Z,102411.69
2022-08-07T08:24:57.075Z,102410.09
2022-08-07T08:27:35.977Z,102408.91
2022-08-07T08:30:05.018Z,102408.78
2022-08-07T08:32:39.274Z,102412.16
2022-08-07T08:35:08.031Z,102401.03
2022-08-07T08:38:01.012Z,102410.88
2022-08-07T08:40:40.327Z,102408.09
2022-08-07T08:43:42.431Z,102400.34
2022-08-07T08:46:15.365Z,102403.41
2022-08-07T08:48:50.900Z,102402.66
2022-08-07T08:52:12.682Z,102386.59
2022-08-07T08:54:35.067Z,102398.81
2022-08-07T08:57:04.217Z,102398.81
2022-08-07T08:59:47.867Z,102400.81
2022-08-07T09:02:38.055Z,102399.06
2022-08-07T09:05:04.482Z,102391.56
2022-08-07T09:07:46.163Z,102396.59
2022-08-07T09:10:27.033Z,102400.75
2022-08-07T09:13:02.187Z,102408.34
2022-08-07T09:16:24.319Z,102410.44
2022-08-07T09:18:23.377Z,102402.63
2022-08-07T09:21:13.809Z,102407.25
2022-08-07T09:24:31.770Z,102392.78
2022-08-07T09:27:13.511Z,102404.44
2022-08-07T09:30:05.593Z,102399.91
2022-08-07T09:32:32.340Z,102396.97
2022-08-07T09:35:04.809Z,102394.97
2022-08-07T09:37:58.310Z,102401.88
2022-08-07T09:40:30.039Z,102396.09
2022-08-07T09:43:00.264Z,102393.22
2022-08-07T09:47:25.812Z,102396.66
2022-08-07T09:48:20.532Z,102393.03
2022-08-07T09:51:02.577Z,102392.91
2022-08-07T09:53:40.455Z,102387.34
2022-08-07T09:56:19.746Z,102393.41
2022-08-07T09:59:00.528Z,102385.06
2022-08-07T10:01:50.954Z,102387.44
2022-08-07T10:04:39.291Z,102385.22
2022-08-07T10:07:31.723Z,102387.41
2022-08-07T10:10:01.131Z,102382.44
2022-08-07T10:13:10.992Z,102373.75
2022-08-07T10:15:44.803Z,102369.13
2022-08-07T10:18:20.303Z,102373.00
2022-08-07T10:21:19.799Z,102368.50
2022-08-07T10:24:21.617Z,102376.47
2022-08-07T10:27:03.053Z,102374.72
2022-08-07T10:29:45.628Z,102374.41
2022-08-07T10:32:16.441Z,102368.03
2022-08-07T10:35:04.118Z,102360.66
2022-08-07T10:37:48.601Z,102372.63
2022-08-07T10:40:30.050Z,102363.63
2022-08-07T10:43:02.656Z,102374.00
2022-08-07T10:45:45.295Z,102366.03
2022-08-07T10:48:25.938Z,102361.09
2022-08-07T10:51:16.838Z,102354.41
2022-08-07T10:54:08.303Z,102351.84
2022-08-07T10:56:54.892Z,102351.56
2022-08-07T10:59:30.477Z,102354.13
2022-08-07T11:02:33.611Z,102340.94
2022-08-07T11:05:10.151Z,102345.88
2022-08-07T11:07:59.206Z,102341.97
2022-08-07T11:10:27.710Z,102337.88
2022-08-07T11:14:42.344Z,102341.28
2022-08-07T11:15:57.264Z,102338.75
2022-08-07T11:18:32.626Z,102341.19
2022-08-07T11:21:25.068Z,102334.09
2022-08-07T11:24:14.852Z,102336.03
2022-08-07T11:26:51.073Z,102333.81
2022-08-07T11:29:40.911Z,102338.16
2022-08-07T11:32:11.660Z,102339.31
2022-08-07T11:34:56.322Z,102334.16
2022-08-07T11:37:58.019Z,102333.25
2022-08-07T11:40:35.824Z,102335.44
2022-08-07T11:43:15.598Z,102340.25
2022-08-07T11:45:53.122Z,102331.56
2022-08-07T11:48:35.354Z,102335.50
2022-08-07T11:51:11.960Z,102335.75
2022-08-07T11:54:02.368Z,102327.97
2022-08-07T11:56:39.219Z,102324.38
2022-08-07T12:00:11.639Z,102331.41
2022-08-07T12:02:31.273Z,102334.94
2022-08-07T12:05:09.032Z,102332.22
2022-08-07T12:07:53.690Z,102332.06
2022-08-07T12:10:41.963Z,102324.06
2022-08-07T12:13:17.212Z,102326.72
2022-08-07T12:16:06.769Z,102324.94
2022-08-07T12:18:45.128Z,102315.75
2022-08-07T12:21:14.929Z,102313.72
2022-08-07T12:24:06.352Z,102309.72
2022-08-07T12:26:34.468Z,102309.34
2022-08-07T12:29:37.594Z,102304.47
2022-08-07T12:32:14.404Z,102300.28
2022-08-07T12:34:49.374Z,102302.56
2022-08-07T12:37:28.322Z,102312.72
2022-08-07T12:40:43.677Z,102304.19
2022-08-07T12:43:00.658Z,102295.84
2022-08-07T12:45:33.443Z,102299.09
2022-08-07T12:48:27.940Z,102297.22
2022-08-07T12:51:17.688Z,102294.56
2022-08-07T12:54:03.117Z,102291.72
2022-08-07T12:56:50.934Z,102281.75
2022-08-07T12:59:23.112Z,102281.19
2022-08-07T13:02:09.896Z,102278.94
2022-08-07T13:05:01.222Z,102276.16
2022-08-07T13:08:14.054Z,102278.72
2022-08-07T13:10:51.582Z,102280.25
2022-08-07T13:13:49.096Z,102268.44
2022-08-07T13:16:22.709Z,102278.53
2022-08-07T13:19:11.408Z,102274.56
2022-08-07T13:21:59.763Z,102276.16
2022-08-07T13:24:37.053Z,102267.22
2022-08-07T13:27:13.170Z,102269.66
2022-08-07T13:29:57.883Z,102263.53
2022-08-07T13:32:32.507Z,102262.75
2022-08-07T13:35:08.772Z,102260.50
2022-08-07T13:37:59.063Z,102256.00
2022-08-07T13:40:36.488Z,102259.38
2022-08-07T13:43:11.773Z,102264.69
2022-08-07T13:46:11.494Z,102248.31
2022-08-07T13:48:34.248Z,102252.47
2022-08-07T13:51:02.612Z,102246.56
2022-08-07T13:53:59.313Z,102243.19
2022-08-07T13:56:40.505Z,102241.69
2022-08-07T13:59:20.740Z,102235.53
2022-08-07T14:02:04.162Z,102231.44
2022-08-07T14:04:35.698Z,102228.16
2022-08-07T14:07:05.866Z,102231.72
2022-08-07T14:10:12.169Z,102230.19
2022-08-07T14:12:30.972Z,102228.09
2022-08-07T14:15:04.683Z,102232.19
2022-08-07T14:18:23.706Z,102234.88
2022-08-07T14:20:41.161Z,102233.06
2022-08-07T14:23:58.565Z,102226.41
2022-08-07T14:26:30.340Z,102218.63
2022-08-07T14:29:06.086Z,102223.69
2022-08-07T14:31:57.804Z,102232.81
2022-08-07T14:34:29.528Z,102215.97
2022-08-07T14:36:56.691Z,102223.13
2022-08-07T14:40:17.345Z,102214.84
2022-08-07T14:42:20.690Z,102223.47
2022-08-07T14:44:52.247Z,102216.94
2022-08-07T14:47:19.225Z,102226.53
2022-08-07T14:49:56.703Z,102220.13
2022-08-07T14:52:28.867Z,102216.84
2022-08-07T14:54:58.550Z,102217.91
2022-08-07T14:57:54.911Z,102212.25
2022-08-07T15:00:12.567Z,102211.28
2022-08-07T15:02:56.878Z,102203.00
2022-08-07T15:05:24.073Z,102196.69
2022-08-07T15:07:52.136Z,102197.78
2022-08-07T15:10:26.533Z,102207.72
2022-08-07T15:13:06.161Z,102201.47
2022-08-07T15:15:38.835Z,102201.50
2022-08-07T15:20:58.875Z,102193.03
2022-08-07T15:25:02.097Z,102196.88
2022-08-07T15:26:22.128Z,102195.19
2022-08-07T15:28:55.520Z,102199.00
2022-08-07T15:32:01.275Z,102196.25
2022-08-07T15:34:15.024Z,102193.13
2022-08-07T15:37:03.479Z,102183.38
2022-08-07T15:39:57.439Z,102184.81
2022-08-07T15:42:43.772Z,102180.03
2022-08-07T15:45:55.528Z,102181.13
2022-08-07T15:48:20.605Z,102182.78
2022-08-07T15:51:01.530Z,102174.03
2022-08-07T15:53:42.150Z,102176.28
2022-08-07T15:56:21.383Z,102175.13
2022-08-07T15:58:57.775Z,102181.84
2022-08-07T16:01:39.169Z,102168.41
2022-08-07T16:04:14.606Z,102176.00
2022-08-07T16:06:58.077Z,102174.25
2022-08-07T16:09:42.271Z,102170.84
2022-08-07T16:12:30.676Z,102176.69
2022-08-07T16:14:59.279Z,102181.53
2022-08-07T16:18:02.821Z,102177.94
2022-08-07T16:20:56.760Z,102172.97
2022-08-07T16:23:58.422Z,102169.06
2022-08-07T16:26:30.899Z,102178.19
2022-08-07T16:30:07.633Z,102167.94
2022-08-07T16:32:02.094Z,102168.94
2022-08-07T16:34:50.879Z,102155.31
2022-08-07T16:38:06.274Z,102157.69
2022-08-07T16:40:30.818Z,102163.94
2022-08-07T16:43:18.872Z,102161.44
2022-08-07T16:46:33.574Z,102164.56
2022-08-07T16:50:20.674Z,102154.03
2022-08-07T16:52:01.847Z,102160.09
2022-08-07T16:54:55.517Z,102169.72
2022-08-07T16:58:01.885Z,102176.44
2022-08-07T17:00:29.370Z,102155.72
2022-08-07T17:03:17.497Z,102162.06
2022-08-07T17:06:19.413Z,102157.50
2022-08-07T17:09:09.787Z,102156.22
2022-08-07T17:11:26.646Z,102155.97
2022-08-07T17:14:18.991Z,102159.81
2022-08-07T17:16:57.039Z,102157.56
2022-08-07T17:20:01.736Z,102167.47
2022-08-07T17:22:18.879Z,102163.41
2022-08-07T17:25:15.393Z,102163.47
2022-08-07T17:27:51.031Z,102158.31
2022-08-07T17:30:20.566Z,102172.91
2022-08-07T17:34:09.217Z,102169.66
2022-08-07T17:36:00.687Z,102156.66
2022-08-07T17:38:35.285Z,102165.00
2022-08-07T17:42:02.257Z,102159.94
2022-08-07T17:44:01.070Z,102154.75
2022-08-07T17:46:34.360Z,102154.91
2022-08-07T17:49:13.981Z,102156.09
2022-08-07T17:52:00.368Z,102155.50
2022-08-07T17:54:54.578Z,102155.78
2022-08-07T17:57:31.992Z,102158.69
2022-08-07T18:00:32.765Z,102155.31
2022-08-07T18:03:09.094Z,102160.03
2022-08-07T18:06:03.302Z,102163.75
2022-08-07T18:08:31.065Z,102156.78
2022-08-07T18:12:17.346Z,102159.69
2022-08-07T18:14:10.255Z,102153.63
2022-08-07T18:16:57.618Z,102167.19
2022-08-07T18:21:10.003Z,102161.09
2022-08-07T18:22:27.421Z,102159.47
2022-08-07T18:25:01.547Z,102159.53
2022-08-07T18:27:54.909Z,102166.84
2022-08-07T18:30:31.691Z,102166.13
2022-08-07T18:33:18.456Z,102167.09
2022-08-07T18:35:51.790Z,102164.59
2022-08-07T18:38:56.626Z,102161.16
2022-08-07T18:41:16.880Z,102171.16
2022-08-07T18:43:49.199Z,102170.41
2022-08-07T18:46:24.727Z,102172.31
2022-08-07T18:50:32.756Z,102168.03
2022-08-07T18:52:34.632Z,102178.88
2022-08-07T18:54:32.597Z,102173.63
2022-08-07T18:57:29.737Z,102182.66
2022-08-07T18:59:59.406Z,102185.50
2022-08-07T19:02:36.846Z,102182.91
2022-08-07T19:05:22.288Z,102181.19
2022-08-07T19:07:57.413Z,102187.50
2022-08-07T19:10:31.070Z,102190.19
2022-08-07T19:13:10.140Z,102189.38
2022-08-07T19:17:05.708Z,102192.13
2022-08-07T19:19:08.158Z,102189.47
2022-08-07T19:21:55.872Z,102189.47
2022-08-07T19:24:46.294Z,102193.94
2022-08-07T19:28:29.979Z,102192.19
2022-08-07T19:31:02.070Z,102194.00
2022-08-07T19:33:01.447Z,102198.47
2022-08-07T19:35:37.664Z,102206.53
2022-08-07T19:38:16.108Z,102203.88
2022-08-07T19:40:50.758Z,102210.09
2022-08-07T19:43:48.888Z,102218.09
2022-08-07T19:46:26.301Z,102213.66
2022-08-07T19:48:59.546Z,102216.31
2022-08-07T19:51:52.187Z,102218.13
2022-08-07T19:54:35.607Z,102211.00
2022-08-07T19:58:01.693Z,102213.66
2022-08-07T19:59:53.428Z,102214.53
2022-08-07T20:02:28.949Z,102216.31
2022-08-07T20:04:56.533Z,102219.88
2022-08-07T20:07:47.855Z,102217.22
2022-08-07T20:10:37.290Z,102223.44
2022-08-07T20:13:22.522Z,102221.66
2022-08-07T20:15:50.483Z,102230.47
2022-08-07T20:18:18.157Z,102226.03
2022-08-07T20:20:46.272Z,102224.22
2022-08-07T20:23:40.615Z,102225.09
2022-08-07T20:26:09.957Z,102235.75
2022-08-07T20:28:38.025Z,102233.94
2022-08-07T20:31:21.333Z,102235.69
2022-08-07T20:33:50.846Z,102236.56
2022-08-07T20:36:23.775Z,102233.91
2022-08-07T20:39:00.868Z,102240.97
2022-08-07T20:41:40.692Z,102242.72
2022-08-07T20:44:10.290Z,102240.94
2022-08-07T20:46:44.270Z,102241.81
2022-08-07T20:49:57.867Z,102246.22
2022-08-07T20:51:58.797Z,102240.84
2022-08-07T20:54:30.184Z,102248.81
2022-08-07T20:57:02.916Z,102245.25
2022-08-07T21:00:08.102Z,102249.63
2022-08-07T21:02:38.264Z,102251.34
2022-08-07T21:05:10.250Z,102255.72
2022-08-07T21:07:43.515Z,102256.50
2022-08-07T21:10:25.145Z,102257.34
2022-08-07T21:12:57.903Z,102265.19
2022-08-07T21:15:47.759Z,102264.25
2022-08-07T21:18:20.363Z,102258.00
2022-08-07T21:20:57.434Z,102261.50
2022-08-07T21:23:49.455Z,102260.56
2022-08-07T21:26:42.864Z,102261.41
2022-08-07T21:29:18.238Z,102253.34
2022-08-07T21:32:47.429Z,102257.75
2022-08-07T21:34:59.610Z,102263.84
2022-08-07T21:37:57.278Z,102263.75
2022-08-07T21:40:30.892Z,102271.66
2022-08-07T21:43:07.632Z,102268.06
2022-08-07T21:46:08.084Z,102260.91
2022-08-07T21:48:55.833Z,102267.06
2022-08-07T21:51:24.999Z,102259.09
2022-08-07T21:53:54.056Z,102267.88
2022-08-07T21:56:35.879Z,102266.91
2022-08-07T21:59:06.604Z,102266.00
2022-08-07T22:02:11.387Z,102265.09
2022-08-07T22:04:27.957Z,102265.03
2022-08-07T22:06:57.872Z,102264.06
2022-08-07T22:09:31.455Z,102261.31
2022-08-07T22:12:14.242Z,102258.63
2022-08-07T22:14:59.893Z,102269.22
2022-08-07T22:17:36.251Z,102263.91
2022-08-07T22:20:26.639Z,102274.44
2022-08-07T22:23:01.625Z,102269.06
2022-08-07T22:25:39.385Z,102275.22
2022-08-07T22:28:40.751Z,102269.00
2022-08-07T22:31:45.202Z,102266.31
2022-08-07T22:34:17.284Z,102265.44
2022-08-07T22:37:05.614Z,102269.03
2022-08-07T22:39:58.601Z,102269.03
2022-08-07T22:42:29.606Z,102268.13
2022-08-07T22:44:59.901Z,102265.44
2022-08-07T22:47:41.136Z,102265.44
2022-08-07T22:50:20.929Z,102265.47
2022-08-07T22:53:15.159Z,102271.72
2022-08-07T22:55:50.909Z,102266.44
2022-08-07T22:58:28.932Z,102269.13
2022-08-07T23:01:06.305Z,102266.53
2022-08-07T23:03:57.368Z,102265.59
2022-08-07T23:06:43.651Z,102274.34
2022-08-07T23:10:04.562Z,102278.66
2022-08-07T23:12:09.637Z,102275.91
2022-08-07T23:14:47.452Z,102274.06
2022-08-07T23:17:20.205Z,102282.81
2022-08-07T23:20:05.112Z,102278.34
2022-08-07T23:22:31.738Z,102278.25
2022-08-07T23:25:16.599Z,102281.75
2022-08-07T23:28:21.879Z,102279.97
2022-08-07T23:31:07.079Z,102282.56
2022-08-07T23:34:33.461Z,102283.44
2022-08-07T23:36:32.706Z,102291.31
2022-08-07T23:39:22.513Z,102285.94
2022-08-07T23:42:05.038Z,102279.63
2022-08-07T23:44:40.908Z,102280.41
2022-08-07T23:47:19.730Z,102292.69
2022-08-07T23:49:51.193Z,102287.31
2022-08-07T23:53:01.819Z,102281.09
2022-08-07T23:55:51.677Z,102280.13
2022-08-07T23:58:18.595Z,102291.56
